createdAt,value
2023-01-08T00:00:19.994Z,0
2023-01-08T00:01:20.656Z,0
2023-01-08T00:02:22.424Z,0
2023-01-08T00:03:23.067Z,0
2023-01-08T00:04:23.624Z,0
2023-01-08T00:05:24.065Z,0
2023-01-08T00:06:23.580Z,0
2023-01-08T00:07:24.525Z,0
2023-01-08T00:08:24.732Z,0
2023-01-08T00:09:25.778Z,0
2023-01-08T00:10:26.016Z,0
2023-01-08T00:11:26.427Z,0
2023-01-08T00:12:27.371Z,0
2023-01-08T00:13:27.016Z,0
2023-01-08T00:14:28.033Z,0
2023-01-08T00:15:27.916Z,0
2023-01-08T00:16:29.821Z,0
2023-01-08T00:17:30.295Z,0
2023-01-08T00:18:30.263Z,0
2023-01-08T00:19:31.471Z,0
2023-01-08T00:20:31.988Z,0
2023-01-08T00:21:32.302Z,0
2023-01-08T00:22:32.210Z,0
2023-01-08T00:23:33.430Z,0
2023-01-08T00:24:33.752Z,0
2023-01-08T00:25:34.464Z,0
2023-01-08T00:26:35.100Z,0
2023-01-08T00:27:35.754Z,0
2023-01-08T00:28:36.969Z,0
2023-01-08T00:29:38.407Z,0
2023-01-08T00:30:38.796Z,0
2023-01-08T00:31:39.116Z,0
2023-01-08T00:32:39.459Z,0
2023-01-08T00:33:39.397Z,0
2023-01-08T00:34:40.329Z,0
2023-01-08T00:35:40.487Z,0
2023-01-08T00:36:41.844Z,0
2023-01-08T00:37:41.771Z,0
2023-01-08T00:38:42.456Z,0
2023-01-08T00:39:43.203Z,0
2023-01-08T00:40:44.407Z,0
2023-01-08T00:41:44.360Z,0
2023-01-08T00:42:45.566Z,0
2023-01-08T00:43:45.971Z,0
2023-01-08T00:44:46.992Z,0
2023-01-08T00:45:47.529Z,0
2023-01-08T00:46:47.770Z,0
2023-01-08T00:47:48.944Z,0
2023-01-08T00:48:49.159Z,0
2023-01-08T00:49:49.067Z,0
2023-01-08T00:50:49.980Z,0
2023-01-08T00:51:50.932Z,0
2023-01-08T00:52:52.149Z,0
2023-01-08T00:53:52.827Z,0
2023-01-08T00:54:54.153Z,0
2023-01-08T00:55:54.674Z,0
2023-01-08T00:56:54.582Z,0
2023-01-08T00:57:55.834Z,0
2023-01-08T00:58:55.970Z,0
2023-01-08T00:59:57.299Z,0
2023-01-08T01:00:58.470Z,0
2023-01-08T01:01:59.101Z,0
2023-01-08T01:02:59.688Z,0
2023-01-08T01:03:59.592Z,0
2023-01-08T01:04:59.541Z,0
2023-01-08T01:06:00.841Z,0
2023-01-08T01:07:01.160Z,0
2023-01-08T01:08:02.418Z,0
2023-01-08T01:09:02.072Z,0
2023-01-08T01:10:03.135Z,0
2023-01-08T01:11:03.342Z,0
2023-01-08T01:12:03.566Z,0
2023-01-08T01:13:03.813Z,0
2023-01-08T01:14:05.078Z,0
2023-01-08T01:15:05.392Z,0
2023-01-08T01:16:06.135Z,0
2023-01-08T01:17:06.505Z,0
2023-01-08T01:18:06.959Z,0
2023-01-08T01:19:07.251Z,0
2023-01-08T01:20:07.876Z,0
2023-01-08T01:21:08.095Z,0
2023-01-08T01:22:08.425Z,0
2023-01-08T01:23:08.365Z,0
2023-01-08T01:24:09.027Z,0
2023-01-08T01:25:10.653Z,0
2023-01-08T01:26:10.523Z,0
2023-01-08T01:27:11.466Z,0
2023-01-08T01:28:12.974Z,0
2023-01-08T01:29:13.403Z,0
2023-01-08T01:30:14.142Z,0
2023-01-08T01:31:15.155Z,0
2023-01-08T01:32:14.843Z,0
2023-01-08T01:33:16.590Z,0
2023-01-08T01:34:16.540Z,0
2023-01-08T01:35:16.761Z,0
2023-01-08T01:36:17.032Z,0
2023-01-08T01:37:18.500Z,0
2023-01-08T01:38:18.156Z,0
2023-01-08T01:39:19.100Z,0
2023-01-08T01:40:19.437Z,0
2023-01-08T01:41:19.666Z,0
2023-01-08T01:42:19.596Z,0
2023-01-08T01:43:20.812Z,0
2023-01-08T01:44:21.298Z,0
2023-01-08T01:45:21.621Z,0
2023-01-08T01:46:22.734Z,0
2023-01-08T01:47:22.979Z,0
2023-01-08T01:48:23.780Z,0
2023-01-08T01:49:23.989Z,0
2023-01-08T01:50:24.499Z,0
2023-01-08T01:51:24.992Z,0
2023-01-08T01:52:25.330Z,0
2023-01-08T01:53:25.822Z,0
2023-01-08T01:54:25.229Z,0
2023-01-08T01:55:25.999Z,0
2023-01-08T01:56:26.246Z,0
2023-01-08T01:57:26.878Z,0
2023-01-08T01:58:28.094Z,0
2023-01-08T01:59:28.415Z,0
2023-01-08T02:00:29.750Z,0
2023-01-08T02:01:30.518Z,0
2023-01-08T02:02:34.311Z,0
2023-01-08T02:03:31.683Z,0
2023-01-08T02:04:31.477Z,0
2023-01-08T02:05:32.979Z,0
2023-01-08T02:06:33.693Z,0
2023-01-08T02:07:34.052Z,0
2023-01-08T02:08:34.686Z,0
2023-01-08T02:09:35.334Z,0
2023-01-08T02:10:36.080Z,0
2023-01-08T02:11:37.324Z,0
2023-01-08T02:12:37.823Z,0
2023-01-08T02:13:38.011Z,0
2023-01-08T02:14:38.509Z,0
2023-01-08T02:15:39.185Z,0
2023-01-08T02:16:40.022Z,0
2023-01-08T02:17:40.259Z,0
2023-01-08T02:18:41.438Z,0
2023-01-08T02:19:41.645Z,0
2023-01-08T02:20:42.125Z,0
2023-01-08T02:21:42.326Z,0
2023-01-08T02:22:42.684Z,0
2023-01-08T02:23:42.891Z,0
2023-01-08T02:24:43.816Z,0
2023-01-08T02:25:45.146Z,0
2023-01-08T02:26:45.163Z,0
2023-01-08T02:27:46.651Z,0
2023-01-08T02:28:46.285Z,0
2023-01-08T02:29:47.488Z,0
2023-01-08T02:30:49.240Z,0
2023-01-08T02:31:48.889Z,0
2023-01-08T02:32:49.825Z,0
2023-01-08T02:33:51.651Z,0
2023-01-08T02:34:51.871Z,0
2023-01-08T02:35:52.802Z,0
2023-01-08T02:36:53.587Z,0
2023-01-08T02:37:54.185Z,0
2023-01-08T02:38:54.386Z,0
2023-01-08T02:39:54.589Z,0
2023-01-08T02:40:55.370Z,0
2023-01-08T02:41:56.568Z,0
2023-01-08T02:42:56.792Z,0
2023-01-08T02:43:56.736Z,0
2023-01-08T02:44:58.038Z,0
2023-01-08T02:45:58.065Z,0
2023-01-08T02:46:59.335Z,0
2023-01-08T02:47:59.814Z,0
2023-01-08T02:49:00.122Z,0
2023-01-08T02:50:00.332Z,0
2023-01-08T02:51:00.764Z,0
2023-01-08T02:52:01.419Z,0
2023-01-08T02:53:02.758Z,0
2023-01-08T02:54:02.966Z,0
2023-01-08T02:55:03.889Z,0
2023-01-08T02:56:04.655Z,0
2023-01-08T02:57:05.494Z,0
2023-01-08T02:58:05.425Z,0
2023-01-08T02:59:06.344Z,0
2023-01-08T03:00:07.545Z,0
2023-01-08T03:01:07.973Z,0
2023-01-08T03:02:08.871Z,0
2023-01-08T03:03:08.359Z,0
2023-01-08T03:04:10.393Z,0
2023-01-08T03:05:10.904Z,0
2023-01-08T03:06:10.559Z,0
2023-01-08T03:07:11.551Z,0
2023-01-08T03:08:12.290Z,0
2023-01-08T03:09:13.830Z,0
2023-01-08T03:10:13.779Z,0
2023-01-08T03:11:14.831Z,0
2023-01-08T03:12:14.758Z,0
2023-01-08T03:13:15.668Z,0
2023-01-08T03:14:17.140Z,0
2023-01-08T03:15:16.785Z,0
2023-01-08T03:16:18.038Z,0
2023-01-08T03:17:18.810Z,0
2023-01-08T03:18:18.475Z,0
2023-01-08T03:19:19.629Z,0
2023-01-08T03:20:20.597Z,0
2023-01-08T03:21:20.806Z,0
2023-01-08T03:22:21.195Z,0
2023-01-08T03:23:22.269Z,0
2023-01-08T03:24:22.365Z,0
2023-01-08T03:25:23.566Z,0
2023-01-08T03:26:23.946Z,0
2023-01-08T03:27:25.253Z,0
2023-01-08T03:28:25.451Z,0
2023-01-08T03:29:26.382Z,0
2023-01-08T03:30:26.786Z,0
2023-01-08T03:31:28.175Z,0
2023-01-08T03:32:28.413Z,0
2023-01-08T03:33:28.626Z,0
2023-01-08T03:34:29.074Z,0
2023-01-08T03:35:29.033Z,0
2023-01-08T03:36:29.967Z,0
2023-01-08T03:37:30.772Z,0
2023-01-08T03:38:30.521Z,0
2023-01-08T03:39:31.458Z,0
2023-01-08T03:40:32.736Z,0
2023-01-08T03:41:32.974Z,0
2023-01-08T03:42:34.185Z,0
2023-01-08T03:43:35.105Z,0
2023-01-08T03:44:35.327Z,0
2023-01-08T03:45:35.574Z,0
2023-01-08T03:46:37.078Z,0
2023-01-08T03:47:36.709Z,0
2023-01-08T03:48:36.910Z,0
2023-01-08T03:49:37.387Z,0
2023-01-08T03:50:37.332Z,0
2023-01-08T03:51:38.325Z,0
2023-01-08T03:52:38.847Z,0
2023-01-08T03:53:39.196Z,0
2023-01-08T03:54:39.114Z,0
2023-01-08T03:55:40.035Z,0
2023-01-08T03:56:41.064Z,0
2023-01-08T03:57:41.600Z,0
2023-01-08T03:58:41.561Z,0
2023-01-08T03:59:42.197Z,0
2023-01-08T04:00:43.425Z,0
2023-01-08T04:01:44.427Z,0
2023-01-08T04:02:44.527Z,0
2023-01-08T04:03:44.455Z,0
2023-01-08T04:04:46.344Z,0
2023-01-08T04:05:45.351Z,0
2023-01-08T04:06:45.996Z,0
2023-01-08T04:07:47.565Z,0
2023-01-08T04:08:47.903Z,0
2023-01-08T04:09:47.833Z,0
2023-01-08T04:10:48.044Z,0
2023-01-08T04:11:49.111Z,0
2023-01-08T04:12:49.039Z,0
2023-01-08T04:13:49.977Z,0
2023-01-08T04:14:49.898Z,0
2023-01-08T04:15:50.936Z,0
2023-01-08T04:16:52.044Z,0
2023-01-08T04:17:52.010Z,0
2023-01-08T04:18:53.243Z,0
2023-01-08T04:19:53.981Z,0
2023-01-08T04:20:53.586Z,0
2023-01-08T04:21:54.801Z,0
2023-01-08T04:22:55.716Z,0
2023-01-08T04:23:56.366Z,0
2023-01-08T04:24:56.055Z,0
2023-01-08T04:25:57.577Z,0
2023-01-08T04:26:58.194Z,0
2023-01-08T04:27:58.202Z,0
2023-01-08T04:28:58.875Z,0
2023-01-08T04:29:59.803Z,0
2023-01-08T04:31:00.105Z,0
2023-01-08T04:32:00.767Z,0
2023-01-08T04:33:00.415Z,0
2023-01-08T04:34:01.351Z,0
2023-01-08T04:35:02.084Z,0
2023-01-08T04:36:02.569Z,0
2023-01-08T04:37:02.474Z,0
2023-01-08T04:38:03.415Z,0
2023-01-08T04:39:04.646Z,0
2023-01-08T04:40:04.262Z,0
2023-01-08T04:41:05.467Z,0
2023-01-08T04:42:05.610Z,0
2023-01-08T04:43:05.847Z,0
2023-01-08T04:44:05.772Z,0
2023-01-08T04:45:06.408Z,0
2023-01-08T04:46:07.635Z,0
2023-01-08T04:47:08.224Z,0
2023-01-08T04:48:08.540Z,0
2023-01-08T04:49:09.761Z,0
2023-01-08T04:50:10.512Z,0
2023-01-08T04:51:10.146Z,0
2023-01-08T04:52:11.348Z,0
2023-01-08T04:53:11.568Z,0
2023-01-08T04:54:12.902Z,0
2023-01-08T04:55:13.126Z,0
2023-01-08T04:56:14.074Z,0
2023-01-08T04:57:14.826Z,0
2023-01-08T04:58:15.376Z,0
2023-01-08T04:59:16.023Z,0
2023-01-08T05:00:16.366Z,0
2023-01-08T05:01:17.707Z,0
2023-01-08T05:02:19.632Z,0
2023-01-08T05:03:19.362Z,0
2023-01-08T05:04:19.315Z,0
2023-01-08T05:05:20.776Z,0
2023-01-08T05:06:20.409Z,0
2023-01-08T05:07:21.326Z,0
2023-01-08T05:08:22.067Z,0
2023-01-08T05:09:22.695Z,0
2023-01-08T05:10:22.898Z,0
2023-01-08T05:11:24.164Z,0
2023-01-08T05:12:23.931Z,0
2023-01-08T05:13:25.437Z,0
2023-01-08T05:14:25.657Z,0
2023-01-08T05:15:25.979Z,0
2023-01-08T05:16:26.602Z,0
2023-01-08T05:17:26.970Z,0
2023-01-08T05:18:27.461Z,0
2023-01-08T05:19:27.965Z,0
2023-01-08T05:20:30.698Z,0
2023-01-08T05:21:28.919Z,0
2023-01-08T05:22:29.412Z,0
2023-01-08T05:23:29.054Z,0
2023-01-08T05:24:30.654Z,0
2023-01-08T05:25:30.873Z,0
2023-01-08T05:26:30.797Z,0
2023-01-08T05:27:32.550Z,0
2023-01-08T05:28:32.260Z,0
2023-01-08T05:29:33.468Z,0
2023-01-08T05:30:33.369Z,0
2023-01-08T05:31:35.309Z,0
2023-01-08T05:32:35.919Z,0
2023-01-08T05:33:35.837Z,0
2023-01-08T05:34:37.150Z,0
2023-01-08T05:35:37.344Z,0
2023-01-08T05:36:37.267Z,0
2023-01-08T05:37:38.189Z,0
2023-01-08T05:38:39.162Z,0
2023-01-08T05:39:40.672Z,0
2023-01-08T05:40:40.610Z,0
2023-01-08T05:41:40.814Z,0
2023-01-08T05:42:41.453Z,0
2023-01-08T05:43:41.662Z,0
2023-01-08T05:44:42.025Z,0
2023-01-08T05:45:43.515Z,0
2023-01-08T05:46:44.435Z,0
2023-01-08T05:47:44.706Z,0
2023-01-08T05:48:44.415Z,0
2023-01-08T05:49:45.345Z,0
2023-01-08T05:50:46.483Z,0
2023-01-08T05:51:46.413Z,0
2023-01-08T05:52:46.084Z,0
2023-01-08T05:53:47.602Z,0
2023-01-08T05:54:48.204Z,0
2023-01-08T05:55:48.420Z,0
2023-01-08T05:56:48.324Z,0
2023-01-08T05:57:49.354Z,0
2023-01-08T05:58:49.286Z,0
2023-01-08T05:59:49.918Z,0
2023-01-08T06:00:50.580Z,0
2023-01-08T06:01:51.630Z,0
2023-01-08T06:02:53.422Z,0
2023-01-08T06:03:53.823Z,0
2023-01-08T06:04:53.863Z,0
2023-01-08T06:05:55.588Z,0
2023-01-08T06:06:55.822Z,0
2023-01-08T06:07:55.762Z,0
2023-01-08T06:08:57.178Z,0
2023-01-08T06:09:57.505Z,0
2023-01-08T06:10:57.425Z,0
2023-01-08T06:11:58.628Z,0
2023-01-08T06:12:58.954Z,0
2023-01-08T06:13:58.866Z,0
2023-01-08T06:14:59.237Z,0
2023-01-08T06:16:00.458Z,0
2023-01-08T06:17:00.676Z,0
2023-01-08T06:18:02.045Z,0
2023-01-08T06:19:02.842Z,0
2023-01-08T06:20:02.480Z,0
2023-01-08T06:21:03.920Z,0
2023-01-08T06:22:03.828Z,0
2023-01-08T06:23:04.779Z,0
2023-01-08T06:24:05.137Z,0
2023-01-08T06:25:05.900Z,0
2023-01-08T06:26:06.896Z,0
2023-01-08T06:27:08.100Z,0
2023-01-08T06:28:08.250Z,0
2023-01-08T06:29:09.247Z,0
2023-01-08T06:30:09.905Z,0
2023-01-08T06:31:11.255Z,0
2023-01-08T06:32:10.649Z,0
2023-01-08T06:33:11.984Z,0
2023-01-08T06:34:12.971Z,0
2023-01-08T06:35:13.970Z,0
2023-01-08T06:36:14.614Z,0
2023-01-08T06:37:14.539Z,0
2023-01-08T06:38:15.473Z,0
2023-01-08T06:39:15.987Z,0
2023-01-08T06:40:16.619Z,0
2023-01-08T06:41:16.343Z,0
2023-01-08T06:42:17.356Z,0
2023-01-08T06:43:18.393Z,0
2023-01-08T06:44:18.023Z,0
2023-01-08T06:45:18.962Z,0
2023-01-08T06:46:20.578Z,0
2023-01-08T06:47:20.830Z,0
2023-01-08T06:48:22.173Z,0
2023-01-08T06:49:21.890Z,0
2023-01-08T06:50:22.374Z,0
2023-01-08T06:51:22.453Z,0
2023-01-08T06:52:23.464Z,0
2023-01-08T06:53:24.130Z,0
2023-01-08T06:54:25.041Z,5.63
2023-01-08T06:55:26.073Z,5.63
2023-01-08T06:56:25.991Z,5.63
2023-01-08T06:57:26.915Z,5.63
2023-01-08T06:58:27.708Z,0
2023-01-08T06:59:28.134Z,0
2023-01-08T07:00:28.408Z,0
2023-01-08T07:01:29.202Z,0
2023-01-08T07:02:31.481Z,0
2023-01-08T07:03:30.404Z,0
2023-01-08T07:04:30.374Z,0
2023-01-08T07:05:31.329Z,0
2023-01-08T07:06:32.943Z,0
2023-01-08T07:07:33.138Z,0
2023-01-08T07:08:34.072Z,0
2023-01-08T07:09:34.406Z,5.63
2023-01-08T07:10:37.260Z,5.63
2023-01-08T07:11:35.461Z,5.63
2023-01-08T07:12:35.374Z,5.63
2023-01-08T07:13:36.711Z,5.63
2023-01-08T07:14:36.628Z,5.63
2023-01-08T07:15:38.184Z,5.63
2023-01-08T07:16:38.672Z,5.63
2023-01-08T07:17:38.603Z,5.63
2023-01-08T07:18:39.395Z,5.63
2023-01-08T07:19:39.035Z,5.63
2023-01-08T07:20:40.647Z,5.63
2023-01-08T07:21:41.409Z,5.63
2023-01-08T07:22:41.633Z,5.63
2023-01-08T07:23:41.288Z,5.63
2023-01-08T07:24:41.936Z,5.63
2023-01-08T07:25:43.529Z,5.63
2023-01-08T07:26:44.052Z,5.63
2023-01-08T07:27:44.286Z,5.63
2023-01-08T07:28:45.618Z,5.63
2023-01-08T07:29:45.054Z,5.63
2023-01-08T07:30:47.022Z,5.63
2023-01-08T07:31:47.071Z,5.63
2023-01-08T07:32:47.291Z,5.63
2023-01-08T07:33:47.385Z,5.63
2023-01-08T07:34:47.732Z,11.25
2023-01-08T07:35:48.083Z,11.25
2023-01-08T07:36:49.426Z,11.25
2023-01-08T07:37:50.075Z,11.25
2023-01-08T07:38:51.279Z,11.25
2023-01-08T07:39:50.691Z,11.25
2023-01-08T07:40:55.877Z,11.25
2023-01-08T07:41:52.846Z,16.88
2023-01-08T07:42:53.106Z,16.88
2023-01-08T07:43:53.897Z,16.88
2023-01-08T07:44:55.083Z,16.88
2023-01-08T07:45:55.745Z,16.88
2023-01-08T07:46:56.891Z,16.88
2023-01-08T07:47:57.142Z,16.88
2023-01-08T07:48:58.174Z,16.88
2023-01-08T07:49:58.483Z,16.88
2023-01-08T07:50:58.540Z,16.88
2023-01-08T07:51:59.991Z,22.5
2023-01-08T07:52:59.909Z,22.5
2023-01-08T07:54:01.133Z,22.5
2023-01-08T07:55:00.761Z,22.5
2023-01-08T07:56:01.822Z,22.5
2023-01-08T07:57:03.327Z,22.5
2023-01-08T07:58:03.261Z,22.5
2023-01-08T07:59:04.887Z,22.5
2023-01-08T08:00:05.739Z,22.5
2023-01-08T08:01:05.681Z,22.5
2023-01-08T08:02:07.262Z,22.5
2023-01-08T08:03:07.683Z,22.5
2023-01-08T08:04:08.048Z,28.13
2023-01-08T08:05:08.561Z,28.13
2023-01-08T08:06:08.753Z,28.13
2023-01-08T08:07:09.476Z,28.13
2023-01-08T08:08:09.708Z,33.75
2023-01-08T08:09:09.646Z,33.75
2023-01-08T08:10:10.397Z,33.75
2023-01-08T08:11:10.758Z,39.38
2023-01-08T08:12:11.312Z,39.38
2023-01-08T08:13:11.235Z,39.38
2023-01-08T08:14:13.500Z,39.38
2023-01-08T08:15:13.010Z,45
2023-01-08T08:16:13.882Z,45
2023-01-08T08:17:14.413Z,50.63
2023-01-08T08:18:14.092Z,50.63
2023-01-08T08:19:15.423Z,50.63
2023-01-08T08:20:16.219Z,50.63
2023-01-08T08:21:15.555Z,56.25
2023-01-08T08:22:16.719Z,56.25
2023-01-08T08:23:17.054Z,56.25
2023-01-08T08:24:17.300Z,56.25
2023-01-08T08:25:17.218Z,61.88
2023-01-08T08:26:18.845Z,61.88
2023-01-08T08:27:19.083Z,67.5
2023-01-08T08:28:19.284Z,73.13
2023-01-08T08:29:19.747Z,78.75
2023-01-08T08:30:20.795Z,84.38
2023-01-08T08:31:22.849Z,101.25
2023-01-08T08:32:21.819Z,101.25
2023-01-08T08:33:23.058Z,95.63
2023-01-08T08:34:23.084Z,84.38
2023-01-08T08:35:24.015Z,84.38
2023-01-08T08:36:25.231Z,78.75
2023-01-08T08:37:25.894Z,78.75
2023-01-08T08:38:29.309Z,78.75
2023-01-08T08:39:26.512Z,78.75
2023-01-08T08:40:26.825Z,84.38
2023-01-08T08:41:28.553Z,84.38
2023-01-08T08:42:28.193Z,84.38
2023-01-08T08:43:29.116Z,84.38
2023-01-08T08:44:30.169Z,90
2023-01-08T08:45:31.644Z,90
2023-01-08T08:46:32.204Z,90
2023-01-08T08:47:32.440Z,90
2023-01-08T08:48:33.108Z,101.25
2023-01-08T08:49:34.421Z,90
2023-01-08T08:50:34.745Z,101.25
2023-01-08T08:51:34.387Z,106.88
2023-01-08T08:52:36.125Z,123.75
2023-01-08T08:53:38.826Z,135
2023-01-08T08:54:36.766Z,140.63
2023-01-08T08:55:36.676Z,151.88
2023-01-08T08:56:38.010Z,151.88
2023-01-08T08:57:37.975Z,163.13
2023-01-08T08:58:39.206Z,151.88
2023-01-08T08:59:40.246Z,157.5
2023-01-08T09:00:40.604Z,180
2023-01-08T09:01:42.382Z,208.13
2023-01-08T09:02:43.627Z,163.13
2023-01-08T09:03:43.516Z,157.5
2023-01-08T09:04:44.119Z,174.38
2023-01-08T09:05:44.054Z,174.38
2023-01-08T09:06:45.256Z,225
2023-01-08T09:07:45.701Z,213.75
2023-01-08T09:08:45.931Z,202.5
2023-01-08T09:09:46.192Z,174.38
2023-01-08T09:10:47.199Z,168.75
2023-01-08T09:11:47.529Z,180
2023-01-08T09:12:48.773Z,168.75
2023-01-08T09:13:48.737Z,163.13
2023-01-08T09:14:49.994Z,163.13
2023-01-08T09:15:49.965Z,168.75
2023-01-08T09:16:50.905Z,174.38
2023-01-08T09:17:51.539Z,247.5
2023-01-08T09:18:51.900Z,275.63
2023-01-08T09:19:53.489Z,286.88
2023-01-08T09:20:53.725Z,247.5
2023-01-08T09:21:54.085Z,275.63
2023-01-08T09:22:55.547Z,163.13
2023-01-08T09:23:55.182Z,168.75
2023-01-08T09:24:56.377Z,140.63
2023-01-08T09:25:56.304Z,123.75
2023-01-08T09:26:57.333Z,129.38
2023-01-08T09:27:58.838Z,135
2023-01-08T09:28:58.771Z,146.25
2023-01-08T09:29:59.260Z,202.5
2023-01-08T09:30:59.343Z,219.38
2023-01-08T09:32:01.123Z,196.88
2023-01-08T09:33:02.611Z,135
2023-01-08T09:34:01.786Z,129.38
2023-01-08T09:35:03.516Z,129.38
2023-01-08T09:36:03.713Z,174.38
2023-01-08T09:37:03.929Z,185.63
2023-01-08T09:38:04.099Z,168.75
2023-01-08T09:39:04.584Z,157.5
2023-01-08T09:40:14.183Z,213.75
2023-01-08T09:41:05.451Z,236.25
2023-01-08T09:42:05.781Z,236.25
2023-01-08T09:43:06.295Z,230.63
2023-01-08T09:44:06.514Z,213.75
2023-01-08T09:45:06.858Z,225
2023-01-08T09:46:07.385Z,393.75
2023-01-08T09:47:08.086Z,506.25
2023-01-08T09:48:07.460Z,337.5
2023-01-08T09:49:08.376Z,230.63
2023-01-08T09:50:09.237Z,258.75
2023-01-08T09:51:09.945Z,382.5
2023-01-08T09:52:10.597Z,292.5
2023-01-08T09:53:11.957Z,275.63
2023-01-08T09:54:12.683Z,388.13
2023-01-08T09:55:13.976Z,416.25
2023-01-08T09:56:26.337Z,399.38
2023-01-08T09:57:14.424Z,360
2023-01-08T09:58:15.659Z,579.38
2023-01-08T09:59:16.164Z,658.13
2023-01-08T10:00:16.484Z,669.38
2023-01-08T10:01:17.575Z,663.75
2023-01-08T10:02:18.151Z,787.5
2023-01-08T10:03:18.863Z,753.75
2023-01-08T10:04:19.102Z,680.63
2023-01-08T10:05:19.154Z,613.13
2023-01-08T10:06:20.119Z,444.38
2023-01-08T10:07:20.605Z,545.63
2023-01-08T10:08:20.778Z,691.88
2023-01-08T10:09:25.867Z,461.25
2023-01-08T10:10:21.521Z,303.75
2023-01-08T10:11:22.523Z,275.63
2023-01-08T10:12:23.587Z,247.5
2023-01-08T10:13:24.262Z,230.63
2023-01-08T10:14:25.229Z,230.63
2023-01-08T10:15:26.029Z,241.88
2023-01-08T10:16:27.466Z,230.63
2023-01-08T10:17:28.449Z,270
2023-01-08T10:18:28.387Z,208.13
2023-01-08T10:19:28.588Z,191.25
2023-01-08T10:20:28.559Z,247.5
2023-01-08T10:21:30.089Z,461.25
2023-01-08T10:22:30.590Z,427.5
2023-01-08T10:23:31.333Z,590.63
2023-01-08T10:24:31.850Z,635.63
2023-01-08T10:25:32.080Z,781.88
2023-01-08T10:26:32.280Z,810
2023-01-08T10:27:32.592Z,838.13
2023-01-08T10:28:33.565Z,601.88
2023-01-08T10:29:34.069Z,545.63
2023-01-08T10:30:34.137Z,545.63
2023-01-08T10:31:35.139Z,376.88
2023-01-08T10:32:35.388Z,376.88
2023-01-08T10:33:35.322Z,303.75
2023-01-08T10:34:35.527Z,219.38
2023-01-08T10:35:35.761Z,174.38
2023-01-08T10:36:36.292Z,174.38
2023-01-08T10:37:36.515Z,174.38
2023-01-08T10:38:38.872Z,213.75
2023-01-08T10:39:36.810Z,236.25
2023-01-08T10:40:37.805Z,264.38
2023-01-08T10:41:38.604Z,579.38
2023-01-08T10:42:38.841Z,405
2023-01-08T10:43:39.067Z,180
2023-01-08T10:44:38.997Z,123.75
2023-01-08T10:45:40.255Z,101.25
2023-01-08T10:46:40.540Z,90
2023-01-08T10:47:41.051Z,84.38
2023-01-08T10:48:41.325Z,78.75
2023-01-08T10:49:41.241Z,73.13
2023-01-08T10:50:42.226Z,73.13
2023-01-08T10:51:42.980Z,67.5
2023-01-08T10:52:43.879Z,67.5
2023-01-08T10:53:44.573Z,67.5
2023-01-08T10:54:45.792Z,67.5
2023-01-08T10:55:45.727Z,67.5
2023-01-08T10:56:46.089Z,67.5
2023-01-08T10:57:47.603Z,67.5
2023-01-08T10:58:47.554Z,67.5
2023-01-08T10:59:48.808Z,67.5
2023-01-08T11:00:49.027Z,67.5
2023-01-08T11:01:50.372Z,67.5
2023-01-08T11:02:54.661Z,67.5
2023-01-08T11:03:51.594Z,61.88
2023-01-08T11:04:51.525Z,61.88
2023-01-08T11:05:52.223Z,61.88
2023-01-08T11:06:53.725Z,56.25
2023-01-08T11:07:53.933Z,56.25
2023-01-08T11:08:56.709Z,56.25
2023-01-08T11:09:54.932Z,56.25
2023-01-08T11:10:54.876Z,56.25
2023-01-08T11:11:55.896Z,56.25
2023-01-08T11:12:56.115Z,56.25
2023-01-08T11:13:56.053Z,56.25
2023-01-08T11:14:57.314Z,56.25
2023-01-08T11:15:58.378Z,56.25
2023-01-08T11:16:58.707Z,56.25
2023-01-08T11:17:59.047Z,56.25
2023-01-08T11:18:59.418Z,50.63
2023-01-08T11:20:01.516Z,50.63
2023-01-08T11:21:00.770Z,50.63
2023-01-08T11:22:00.539Z,50.63
2023-01-08T11:23:01.749Z,45
2023-01-08T11:24:02.548Z,45
2023-01-08T11:25:03.770Z,50.63
2023-01-08T11:26:03.685Z,50.63
2023-01-08T11:27:04.610Z,50.63
2023-01-08T11:28:06.127Z,56.25
2023-01-08T11:29:06.075Z,67.5
2023-01-08T11:30:06.345Z,78.75
2023-01-08T11:31:06.586Z,73.13
2023-01-08T11:32:07.253Z,61.88
2023-01-08T11:33:07.468Z,56.25
2023-01-08T11:34:07.416Z,50.63
2023-01-08T11:35:08.631Z,50.63
2023-01-08T11:36:09.149Z,45
2023-01-08T11:37:09.075Z,45
2023-01-08T11:38:09.567Z,45
2023-01-08T11:39:09.349Z,45
2023-01-08T11:40:10.845Z,45
2023-01-08T11:41:11.079Z,45
2023-01-08T11:42:11.130Z,39.38
2023-01-08T11:43:12.409Z,39.38
2023-01-08T11:44:12.022Z,39.38
2023-01-08T11:45:26.001Z,39.38
2023-01-08T11:46:13.909Z,39.38
2023-01-08T11:47:14.122Z,33.75
2023-01-08T11:48:14.608Z,33.75
2023-01-08T11:49:15.196Z,33.75
2023-01-08T11:50:14.892Z,33.75
2023-01-08T11:51:16.133Z,33.75
2023-01-08T11:52:16.879Z,33.75
2023-01-08T11:53:17.812Z,33.75
2023-01-08T11:54:19.770Z,33.75
2023-01-08T11:55:18.690Z,33.75
2023-01-08T11:56:19.657Z,28.13
2023-01-08T11:57:20.589Z,28.13
2023-01-08T11:58:21.618Z,28.13
2023-01-08T11:59:22.287Z,28.13
2023-01-08T12:00:25.645Z,22.5
2023-01-08T12:01:23.978Z,22.5
2023-01-08T12:02:24.689Z,22.5
2023-01-08T12:03:24.935Z,22.5
2023-01-08T12:04:25.650Z,22.5
2023-01-08T12:05:26.864Z,22.5
2023-01-08T12:06:27.365Z,22.5
2023-01-08T12:07:27.296Z,22.5
2023-01-08T12:08:27.225Z,22.5
2023-01-08T12:09:28.483Z,22.5
2023-01-08T12:10:28.397Z,22.5
2023-01-08T12:11:29.605Z,22.5
2023-01-08T12:12:31.720Z,22.5
2023-01-08T12:13:31.234Z,22.5
2023-01-08T12:14:31.455Z,22.5
2023-01-08T12:15:32.041Z,22.5
2023-01-08T12:16:32.371Z,16.88
2023-01-08T12:17:35.923Z,16.88
2023-01-08T12:18:33.149Z,16.88
2023-01-08T12:19:33.353Z,16.88
2023-01-08T12:20:34.105Z,22.5
2023-01-08T12:21:35.061Z,22.5
2023-01-08T12:22:35.681Z,22.5
2023-01-08T12:23:36.192Z,22.5
2023-01-08T12:24:36.734Z,22.5
2023-01-08T12:25:36.974Z,22.5
2023-01-08T12:26:36.897Z,22.5
2023-01-08T12:28:08.442Z,28.13
2023-01-08T12:28:37.681Z,28.13
2023-01-08T12:29:37.969Z,28.13
2023-01-08T12:30:38.016Z,28.13
2023-01-08T12:31:39.472Z,28.13
2023-01-08T12:32:39.899Z,28.13
2023-01-08T12:33:40.824Z,33.75
2023-01-08T12:34:41.192Z,33.75
2023-01-08T12:35:42.128Z,33.75
2023-01-08T12:36:43.136Z,33.75
2023-01-08T12:37:43.069Z,33.75
2023-01-08T12:38:44.262Z,33.75
2023-01-08T12:39:44.880Z,39.38
2023-01-08T12:40:45.369Z,39.38
2023-01-08T12:41:45.591Z,33.75
2023-01-08T12:42:47.358Z,33.75
2023-01-08T12:43:46.595Z,33.75
2023-01-08T12:44:46.532Z,33.75
2023-01-08T12:45:47.845Z,33.75
2023-01-08T12:46:48.843Z,33.75
2023-01-08T12:47:48.792Z,33.75
2023-01-08T12:48:51.854Z,33.75
2023-01-08T12:49:51.157Z,33.75
2023-01-08T12:50:51.449Z,33.75
2023-01-08T12:51:51.978Z,33.75
2023-01-08T12:52:51.723Z,33.75
2023-01-08T12:53:52.958Z,33.75
2023-01-08T12:54:52.922Z,33.75
2023-01-08T12:55:54.152Z,33.75
2023-01-08T12:56:54.092Z,33.75
2023-01-08T12:57:55.056Z,28.13
2023-01-08T12:58:55.008Z,28.13
2023-01-08T12:59:55.962Z,28.13
2023-01-08T13:00:57.690Z,28.13
2023-01-08T13:01:59.617Z,28.13
2023-01-08T13:02:58.414Z,28.13
2023-01-08T13:04:00.286Z,28.13
2023-01-08T13:04:58.921Z,28.13
2023-01-08T13:06:00.136Z,28.13
2023-01-08T13:07:00.356Z,22.5
2023-01-08T13:08:00.875Z,22.5
2023-01-08T13:09:01.760Z,22.5
2023-01-08T13:10:01.900Z,22.5
2023-01-08T13:11:03.127Z,22.5
2023-01-08T13:12:03.048Z,16.88
2023-01-08T13:13:04.079Z,16.88
2023-01-08T13:14:05.300Z,16.88
2023-01-08T13:15:05.212Z,16.88
2023-01-08T13:16:06.141Z,16.88
2023-01-08T13:17:07.701Z,16.88
2023-01-08T13:18:07.649Z,16.88
2023-01-08T13:19:08.285Z,16.88
2023-01-08T13:20:09.773Z,11.25
2023-01-08T13:21:10.274Z,11.25
2023-01-08T13:22:10.570Z,11.25
2023-01-08T13:23:10.766Z,11.25
2023-01-08T13:24:10.405Z,11.25
2023-01-08T13:25:13.166Z,11.25
2023-01-08T13:26:12.131Z,11.25
2023-01-08T13:27:12.794Z,11.25
2023-01-08T13:28:14.019Z,11.25
2023-01-08T13:29:13.979Z,11.25
2023-01-08T13:30:15.190Z,11.25
2023-01-08T13:31:15.161Z,11.25
2023-01-08T13:32:16.809Z,11.25
2023-01-08T13:33:16.964Z,11.25
2023-01-08T13:34:17.169Z,11.25
2023-01-08T13:35:17.569Z,11.25
2023-01-08T13:36:17.776Z,11.25
2023-01-08T13:37:37.613Z,11.25
2023-01-08T13:38:18.547Z,11.25
2023-01-08T13:39:19.737Z,11.25
2023-01-08T13:40:20.000Z,11.25
2023-01-08T13:41:20.936Z,11.25
2023-01-08T13:42:20.888Z,11.25
2023-01-08T13:43:22.201Z,11.25
2023-01-08T13:44:22.427Z,11.25
2023-01-08T13:45:22.362Z,11.25
2023-01-08T13:46:25.291Z,11.25
2023-01-08T13:47:24.541Z,16.88
2023-01-08T13:48:24.761Z,16.88
2023-01-08T13:49:25.254Z,16.88
2023-01-08T13:50:25.508Z,16.88
2023-01-08T13:51:26.428Z,16.88
2023-01-08T13:52:27.655Z,16.88
2023-01-08T13:53:28.737Z,16.88
2023-01-08T13:54:28.661Z,16.88
2023-01-08T13:55:29.933Z,11.25
2023-01-08T13:56:30.849Z,11.25
2023-01-08T13:57:31.519Z,11.25